createdAt,value
2022-10-22T00:02:04.302Z,12.40
2022-10-22T00:04:34.613Z,12.50
2022-10-22T00:07:03.542Z,12.50
2022-10-22T00:09:31.173Z,12.30
2022-10-22T00:11:58.838Z,12.50
2022-10-22T00:14:26.486Z,12.50
2022-10-22T00:16:54.131Z,12.50
2022-10-22T00:19:23.616Z,12.40
2022-10-22T00:21:51.241Z,12.40
2022-10-22T00:24:18.917Z,12.40
2022-10-22T00:26:46.566Z,12.50
2022-10-22T00:29:14.218Z,12.50
2022-10-22T00:31:41.861Z,12.60
2022-10-22T00:34:09.510Z,12.60
2022-10-22T00:36:38.485Z,12.60
2022-10-22T00:39:06.142Z,12.60
2022-10-22T00:41:33.811Z,12.60
2022-10-22T00:44:02.176Z,12.50
2022-10-22T00:46:29.869Z,12.50
2022-10-22T00:48:58.134Z,12.50
2022-10-22T00:51:27.059Z,12.50
2022-10-22T00:53:57.909Z,12.50
2022-10-22T00:56:25.650Z,12.60
2022-10-22T00:58:54.435Z,12.50
2022-10-22T01:01:23.817Z,12.50
2022-10-22T01:03:51.618Z,12.60
2022-10-22T01:06:22.409Z,12.50
2022-10-22T01:08:55.309Z,12.50
2022-10-22T01:11:28.341Z,12.50
2022-10-22T01:13:58.943Z,12.50
2022-10-22T01:16:31.773Z,12.50
2022-10-22T01:19:02.330Z,12.50
2022-10-22T01:21:33.165Z,12.60
2022-10-22T01:24:30.969Z,12.60
2022-10-22T01:27:05.814Z,12.50
2022-10-22T01:29:38.516Z,12.50
2022-10-22T01:32:08.443Z,12.50
2022-10-22T01:34:37.559Z,12.60
2022-10-22T01:37:05.579Z,12.50
2022-10-22T01:39:35.163Z,12.40
2022-10-22T01:42:02.798Z,12.50
2022-10-22T01:44:31.329Z,12.40
2022-10-22T01:47:04.785Z,12.40
2022-10-22T01:49:36.399Z,12.50
2022-10-22T01:52:11.936Z,12.50
2022-10-22T01:54:45.464Z,12.50
2022-10-22T01:57:19.019Z,12.50
2022-10-22T01:59:51.570Z,12.50
2022-10-22T02:02:25.378Z,12.50
2022-10-22T02:04:55.120Z,12.50
2022-10-22T02:07:25.194Z,12.50
2022-10-22T02:09:53.317Z,12.50
2022-10-22T02:12:21.556Z,12.40
2022-10-22T02:14:50.286Z,12.40
2022-10-22T02:17:20.077Z,12.40
2022-10-22T02:19:51.623Z,12.40
2022-10-22T02:22:19.395Z,12.40
2022-10-22T02:24:47.429Z,12.40
2022-10-22T02:27:25.867Z,12.40
2022-10-22T02:29:59.484Z,12.40
2022-10-22T02:32:29.548Z,12.40
2022-10-22T02:34:58.669Z,12.40
2022-10-22T02:37:26.942Z,12.40
2022-10-22T02:39:56.220Z,12.40
2022-10-22T02:42:24.727Z,12.40
2022-10-22T02:44:52.509Z,12.40
2022-10-22T02:47:20.354Z,12.40
2022-10-22T02:49:48.035Z,12.30
2022-10-22T02:52:17.044Z,12.30
2022-10-22T02:54:44.717Z,12.40
2022-10-22T02:57:12.374Z,12.40
2022-10-22T02:59:40.027Z,12.40
2022-10-22T03:02:07.683Z,12.50
2022-10-22T03:04:35.326Z,12.40
2022-10-22T03:07:02.989Z,12.50
2022-10-22T03:09:32.012Z,12.40
2022-10-22T03:11:59.661Z,12.40
2022-10-22T03:14:27.295Z,12.40
2022-10-22T03:16:55.037Z,12.40
2022-10-22T03:19:22.673Z,12.30
2022-10-22T03:21:51.507Z,12.40
2022-10-22T03:24:21.317Z,12.40
2022-10-22T03:26:51.548Z,12.40
2022-10-22T03:29:20.288Z,12.30
2022-10-22T03:31:47.942Z,12.30
2022-10-22T03:34:15.613Z,12.40
2022-10-22T03:36:43.294Z,12.30
2022-10-22T03:39:12.983Z,12.30
2022-10-22T03:41:40.817Z,12.30
2022-10-22T03:44:10.090Z,12.30
2022-10-22T03:46:37.832Z,12.20
2022-10-22T03:49:05.490Z,12.30
2022-10-22T03:51:33.403Z,12.30
2022-10-22T03:54:01.139Z,12.20
2022-10-22T03:56:28.831Z,12.20
2022-10-22T03:58:56.802Z,12.20
2022-10-22T04:01:26.302Z,12.20
2022-10-22T04:03:54.144Z,12.10
2022-10-22T04:06:21.975Z,12.10
2022-10-22T04:08:49.775Z,12.20
2022-10-22T04:11:17.646Z,12.20
2022-10-22T04:13:45.685Z,12.20
2022-10-22T04:16:14.648Z,12.10
2022-10-22T04:18:44.133Z,12.10
2022-10-22T04:21:12.869Z,12.00
2022-10-22T04:23:40.860Z,11.90
2022-10-22T04:26:08.848Z,11.90
2022-10-22T04:28:36.661Z,11.90
2022-10-22T04:31:08.339Z,11.90
2022-10-22T04:33:36.027Z,11.90
2022-10-22T04:36:08.936Z,11.80
2022-10-22T04:38:36.714Z,11.80
2022-10-22T04:41:11.340Z,11.90
2022-10-22T04:43:39.002Z,11.90
2022-10-22T04:46:09.056Z,11.90
2022-10-22T04:48:36.943Z,11.90
2022-10-22T04:51:04.786Z,11.80
2022-10-22T04:53:35.435Z,11.90
2022-10-22T04:56:09.872Z,11.90
2022-10-22T04:58:37.528Z,11.90
2022-10-22T05:01:10.288Z,11.90
2022-10-22T05:03:37.949Z,11.90
2022-10-22T05:06:05.802Z,12.00
2022-10-22T05:08:35.149Z,11.90
2022-10-22T05:11:03.003Z,11.80
2022-10-22T05:13:30.661Z,11.80
2022-10-22T05:16:02.281Z,11.90
2022-10-22T05:18:29.955Z,11.80
2022-10-22T05:20:57.637Z,11.90
2022-10-22T05:23:25.294Z,11.90
2022-10-22T05:25:54.285Z,11.90
2022-10-22T05:28:21.907Z,11.80
2022-10-22T05:30:53.816Z,11.80
2022-10-22T05:33:24.056Z,11.80
2022-10-22T05:35:52.106Z,11.90
2022-10-22T05:38:19.848Z,11.90
2022-10-22T05:40:47.773Z,11.80
2022-10-22T05:43:16.807Z,11.90
2022-10-22T05:45:44.476Z,11.80
2022-10-22T05:48:12.129Z,11.80
2022-10-22T05:50:40.188Z,11.60
2022-10-22T05:53:07.828Z,11.70
2022-10-22T05:55:37.441Z,11.70
2022-10-22T05:58:05.155Z,11.60
2022-10-22T06:00:34.787Z,11.60
2022-10-22T06:03:02.445Z,11.60
2022-10-22T06:05:30.102Z,11.60
2022-10-22T06:07:58.605Z,11.50
2022-10-22T06:10:26.259Z,11.60
2022-10-22T06:12:53.908Z,11.60
2022-10-22T06:15:21.592Z,11.60
2022-10-22T06:17:50.629Z,11.60
2022-10-22T06:20:18.448Z,11.60
2022-10-22T06:22:48.193Z,11.60
2022-10-22T06:25:15.942Z,11.60
2022-10-22T06:27:43.617Z,11.60
2022-10-22T06:30:11.716Z,11.60
2022-10-22T06:32:39.609Z,11.60
2022-10-22T06:35:09.205Z,11.60
2022-10-22T06:37:36.903Z,11.60
2022-10-22T06:40:04.796Z,11.70
2022-10-22T06:42:32.468Z,11.70
2022-10-22T06:47:33.371Z,11.80
2022-10-22T06:50:01.042Z,11.70
2022-10-22T06:52:30.029Z,11.80
2022-10-22T06:54:57.720Z,11.70
2022-10-22T06:57:25.378Z,11.80
2022-10-22T06:59:53.044Z,11.80
2022-10-22T07:02:20.695Z,11.80
2022-10-22T07:04:48.449Z,11.90
2022-10-22T07:07:16.158Z,11.90
2022-10-22T07:09:47.371Z,12.00
2022-10-22T07:12:15.704Z,12.00
2022-10-22T07:14:43.408Z,12.10
2022-10-22T07:17:11.225Z,12.10
2022-10-22T07:19:38.937Z,12.10
2022-10-22T07:22:06.584Z,12.20
2022-10-22T07:24:34.247Z,12.20
2022-10-22T07:27:04.339Z,12.30
2022-10-22T07:29:32.834Z,12.40
2022-10-22T07:32:00.479Z,12.40
2022-10-22T07:34:28.194Z,12.50
2022-10-22T07:36:57.153Z,12.50
2022-10-22T07:39:25.832Z,12.60
2022-10-22T07:41:53.792Z,12.70
2022-10-22T07:44:22.825Z,12.70
2022-10-22T07:46:50.464Z,12.80
2022-10-22T07:49:18.119Z,12.80
2022-10-22T07:51:45.783Z,12.80
2022-10-22T07:54:13.458Z,12.80
2022-10-22T07:56:41.120Z,12.90
2022-10-22T07:59:08.778Z,12.90
2022-10-22T08:01:38.053Z,12.90
2022-10-22T08:04:08.241Z,13.00
2022-10-22T08:06:36.575Z,13.00
2022-10-22T08:09:04.343Z,13.00
2022-10-22T08:11:33.491Z,13.00
2022-10-22T08:14:01.329Z,13.10
2022-10-22T08:16:28.977Z,13.10
2022-10-22T08:18:58.187Z,13.10
2022-10-22T08:21:25.915Z,13.10
2022-10-22T08:23:53.650Z,13.20
2022-10-22T08:26:21.344Z,13.20
2022-10-22T08:28:49.029Z,13.30
2022-10-22T08:31:16.681Z,13.40
2022-10-22T08:33:44.372Z,13.50
2022-10-22T08:36:13.435Z,13.60
2022-10-22T08:38:41.083Z,13.70
2022-10-22T08:41:11.080Z,13.80
2022-10-22T08:43:42.672Z,13.90
2022-10-22T08:46:16.121Z,14.00
2022-10-22T08:48:46.540Z,14.00
2022-10-22T08:51:17.275Z,14.20
2022-10-22T08:53:52.557Z,14.10
2022-10-22T08:56:22.811Z,14.20
2022-10-22T08:58:54.532Z,14.30
2022-10-22T09:01:23.993Z,14.30
2022-10-22T09:03:53.303Z,14.30
2022-10-22T09:06:23.300Z,14.30
2022-10-22T09:08:51.375Z,14.30
2022-10-22T09:11:23.878Z,14.40
2022-10-22T09:13:53.911Z,14.50
2022-10-22T09:16:23.281Z,14.60
2022-10-22T09:18:55.531Z,14.60
2022-10-22T09:21:29.588Z,14.80
2022-10-22T09:24:00.882Z,14.80
2022-10-22T09:26:28.787Z,14.80
2022-10-22T09:29:00.232Z,14.90
2022-10-22T09:31:28.294Z,14.90
2022-10-22T09:33:57.489Z,15.00
2022-10-22T09:36:29.489Z,15.10
2022-10-22T09:38:57.255Z,15.10
2022-10-22T09:41:26.385Z,15.10
2022-10-22T09:43:54.101Z,15.20
2022-10-22T09:46:23.245Z,15.30
2022-10-22T09:48:52.782Z,15.30
2022-10-22T09:51:21.580Z,15.40
2022-10-22T09:53:57.178Z,15.40
2022-10-22T09:56:26.637Z,15.50
2022-10-22T09:58:56.560Z,15.60
2022-10-22T10:01:25.546Z,15.70
2022-10-22T10:03:53.659Z,15.70
2022-10-22T10:06:22.469Z,15.80
2022-10-22T10:08:51.777Z,15.90
2022-10-22T10:11:28.923Z,16.00
2022-10-22T10:14:03.598Z,16.20
2022-10-22T10:16:41.429Z,16.10
2022-10-22T10:19:14.697Z,16.20
2022-10-22T10:21:46.421Z,16.20
2022-10-22T10:24:20.059Z,16.30
2022-10-22T10:26:51.296Z,16.40
2022-10-22T10:29:24.269Z,16.60
2022-10-22T10:32:01.143Z,16.60
2022-10-22T10:34:34.725Z,16.60
2022-10-22T10:37:06.270Z,16.60
2022-10-22T10:39:44.772Z,16.90
2022-10-22T10:42:19.720Z,16.80
2022-10-22T10:44:52.918Z,16.90
2022-10-22T10:47:27.547Z,17.00
2022-10-22T10:49:58.812Z,17.00
2022-10-22T10:52:29.717Z,17.00
2022-10-22T10:55:14.464Z,17.10
2022-10-22T10:57:47.504Z,17.10
2022-10-22T11:00:16.651Z,17.20
2022-10-22T11:03:00.271Z,17.20
2022-10-22T11:05:31.682Z,17.30
2022-10-22T11:08:02.483Z,17.40
2022-10-22T11:10:33.037Z,17.30
2022-10-22T11:13:04.949Z,17.40
2022-10-22T11:15:33.808Z,17.40
2022-10-22T11:18:04.304Z,17.40
2022-10-22T11:20:38.840Z,17.50
2022-10-22T11:23:19.691Z,17.50
2022-10-22T11:25:50.032Z,17.60
2022-10-22T11:28:19.132Z,17.60
2022-10-22T11:30:49.334Z,17.70
2022-10-22T11:33:19.460Z,17.60
2022-10-22T11:35:48.560Z,17.70
2022-10-22T11:38:17.418Z,17.60
2022-10-22T11:40:46.491Z,17.70
2022-10-22T11:43:27.436Z,17.70
2022-10-22T11:45:58.588Z,17.70
2022-10-22T11:48:28.028Z,17.70
2022-10-22T11:50:56.723Z,17.70
2022-10-22T11:53:31.603Z,17.70
2022-10-22T11:56:03.735Z,17.80
2022-10-22T11:58:34.083Z,17.80
2022-10-22T12:01:18.522Z,17.70
2022-10-22T12:03:49.599Z,17.70
2022-10-22T12:06:22.027Z,17.80
2022-10-22T12:08:57.237Z,17.70
2022-10-22T12:11:26.600Z,17.70
2022-10-22T12:14:00.400Z,17.80
2022-10-22T12:16:37.876Z,17.80
2022-10-22T12:19:18.093Z,17.80
2022-10-22T12:21:49.597Z,17.80
2022-10-22T12:24:18.673Z,17.80
2022-10-22T12:26:47.153Z,17.80
2022-10-22T12:29:17.372Z,17.80
2022-10-22T12:31:46.234Z,17.70
2022-10-22T12:34:15.160Z,17.80
2022-10-22T12:36:42.971Z,17.80
2022-10-22T12:39:13.060Z,17.80
2022-10-22T12:41:41.095Z,17.90
2022-10-22T12:44:11.491Z,17.90
2022-10-22T12:46:40.548Z,18.00
2022-10-22T12:49:11.990Z,18.00
2022-10-22T12:51:39.703Z,18.10
2022-10-22T12:54:09.754Z,18.00
2022-10-22T12:56:38.506Z,18.10
2022-10-22T12:59:08.809Z,18.10
2022-10-22T13:01:38.834Z,18.10
2022-10-22T13:04:17.485Z,18.10
2022-10-22T13:06:45.997Z,18.10
2022-10-22T13:09:15.462Z,18.10
2022-10-22T13:11:49.219Z,18.20
2022-10-22T13:14:19.471Z,18.20
2022-10-22T13:17:02.052Z,18.20
2022-10-22T13:19:41.582Z,18.30
2022-10-22T13:22:29.088Z,18.30
2022-10-22T13:24:59.002Z,18.30
2022-10-22T13:27:27.288Z,18.30
2022-10-22T13:29:55.361Z,18.40
2022-10-22T13:32:28.236Z,18.40
2022-10-22T13:34:57.884Z,18.50
2022-10-22T13:37:26.159Z,18.50
2022-10-22T13:39:53.963Z,18.50
2022-10-22T13:42:21.636Z,18.60
2022-10-22T13:44:49.284Z,18.60
2022-10-22T13:47:24.214Z,18.60
2022-10-22T13:49:51.987Z,18.70
2022-10-22T13:52:27.267Z,18.70
2022-10-22T13:54:54.980Z,18.80
2022-10-22T13:57:22.689Z,18.80
2022-10-22T13:59:50.339Z,18.90
2022-10-22T14:02:18.555Z,18.90
2022-10-22T14:04:46.427Z,18.90
2022-10-22T14:07:14.960Z,18.80
2022-10-22T14:09:44.249Z,18.80
2022-10-22T14:12:12.623Z,18.90
2022-10-22T14:14:40.264Z,18.90
2022-10-22T14:17:11.212Z,18.90
2022-10-22T14:19:38.928Z,18.80
2022-10-22T14:22:06.590Z,18.70
2022-10-22T14:24:34.523Z,18.70
2022-10-22T14:27:03.536Z,18.70
2022-10-22T14:29:31.169Z,18.70
2022-10-22T14:31:58.836Z,18.70
2022-10-22T14:34:26.529Z,18.60
2022-10-22T14:36:54.196Z,18.60
2022-10-22T14:39:21.934Z,18.60
2022-10-22T14:41:49.654Z,18.70
2022-10-22T14:44:18.651Z,18.70
2022-10-22T14:46:46.789Z,18.70
2022-10-22T14:49:14.487Z,18.70
2022-10-22T14:51:42.491Z,18.70
2022-10-22T14:54:10.129Z,18.80
2022-10-22T14:59:10.608Z,18.90
2022-10-22T15:01:42.024Z,18.90
2022-10-22T15:04:09.677Z,18.90
2022-10-22T15:06:37.375Z,18.90
2022-10-22T15:09:06.150Z,18.90
2022-10-22T15:11:33.872Z,18.80
2022-10-22T15:14:01.530Z,18.80
2022-10-22T15:16:29.261Z,18.70
2022-10-22T15:18:59.737Z,18.70
2022-10-22T15:21:27.703Z,18.60
2022-10-22T15:23:55.402Z,18.60
2022-10-22T15:26:23.062Z,18.50
2022-10-22T15:28:50.774Z,18.50
2022-10-22T15:31:38.449Z,18.40
2022-10-22T15:34:07.519Z,18.40
2022-10-22T15:36:35.197Z,18.30
2022-10-22T15:39:06.712Z,18.30
2022-10-22T15:41:34.452Z,18.20
2022-10-22T15:44:02.099Z,18.20
2022-10-22T15:46:34.586Z,18.10
2022-10-22T15:49:03.412Z,18.10
2022-10-22T15:51:32.752Z,18.10
2022-10-22T15:54:00.752Z,18.10
2022-10-22T15:56:29.816Z,18.00
2022-10-22T15:58:58.602Z,17.90
2022-10-22T16:01:27.072Z,17.80
2022-10-22T16:04:00.234Z,17.80
2022-10-22T16:06:28.401Z,17.60
2022-10-22T16:08:58.954Z,17.60
2022-10-22T16:11:26.802Z,17.40
2022-10-22T16:13:55.575Z,17.50
2022-10-22T16:16:23.761Z,17.40
2022-10-22T16:18:51.494Z,17.40
2022-10-22T16:21:19.571Z,17.30
2022-10-22T16:23:47.285Z,17.30
2022-10-22T16:26:17.608Z,17.20
2022-10-22T16:28:46.066Z,17.20
2022-10-22T16:31:14.729Z,17.10
2022-10-22T16:33:47.745Z,17.00
2022-10-22T16:36:18.258Z,16.90
2022-10-22T16:38:45.985Z,16.90
2022-10-22T16:41:14.544Z,16.80
2022-10-22T16:43:44.218Z,16.80
2022-10-22T16:46:12.313Z,16.80
2022-10-22T16:48:42.001Z,16.70
2022-10-22T16:51:10.770Z,16.70
2022-10-22T16:53:38.452Z,16.70
2022-10-22T16:56:09.242Z,16.60
2022-10-22T16:58:36.932Z,16.60
2022-10-22T17:01:08.052Z,16.60
2022-10-22T17:03:35.836Z,16.50
2022-10-22T17:06:04.164Z,16.50
2022-10-22T17:08:32.106Z,16.40
2022-10-22T17:11:05.876Z,16.40
2022-10-22T17:13:33.567Z,16.40
2022-10-22T17:16:04.784Z,16.30
2022-10-22T17:18:34.069Z,16.20
2022-10-22T17:21:01.829Z,16.20
2022-10-22T17:23:29.819Z,16.10
2022-10-22T17:25:58.932Z,16.10
2022-10-22T17:28:26.859Z,16.10
2022-10-22T17:31:02.733Z,16.00
2022-10-22T17:33:31.385Z,16.10
2022-10-22T17:36:00.431Z,16.00
2022-10-22T17:38:28.517Z,16.00
2022-10-22T17:40:58.531Z,16.00
2022-10-22T17:43:27.039Z,16.00
2022-10-22T17:45:54.740Z,15.90
2022-10-22T17:48:22.442Z,15.90
2022-10-22T17:50:51.477Z,15.80
2022-10-22T17:53:21.884Z,15.80
2022-10-22T17:55:49.639Z,15.70
2022-10-22T17:58:17.293Z,15.60
2022-10-22T18:00:45.016Z,15.70
2022-10-22T18:03:12.996Z,15.60
2022-10-22T18:05:41.316Z,15.60
2022-10-22T18:08:08.970Z,15.60
2022-10-22T18:10:41.557Z,15.60
2022-10-22T18:13:09.408Z,15.60
2022-10-22T18:15:37.570Z,15.60
2022-10-22T18:18:05.572Z,15.50
2022-10-22T18:20:33.424Z,15.60
2022-10-22T18:23:03.323Z,15.60
2022-10-22T18:25:31.791Z,15.50
2022-10-22T18:28:01.107Z,15.60
2022-10-22T18:30:28.932Z,15.60
2022-10-22T18:32:56.623Z,15.60
2022-10-22T18:35:25.904Z,15.60
2022-10-22T18:37:53.595Z,15.60
2022-10-22T18:40:21.304Z,15.60
2022-10-22T18:42:48.955Z,15.60
2022-10-22T18:45:18.054Z,15.50
2022-10-22T18:47:45.767Z,15.60
2022-10-22T18:50:13.478Z,15.50
2022-10-22T18:52:41.382Z,15.50
2022-10-22T18:55:09.408Z,15.50
2022-10-22T18:57:37.077Z,15.50
2022-10-22T19:00:05.151Z,15.50
2022-10-22T19:02:34.197Z,15.50
2022-10-22T19:05:01.849Z,15.50
2022-10-22T19:07:29.727Z,15.40
2022-10-22T19:09:59.025Z,15.40
2022-10-22T19:12:26.705Z,15.40
2022-10-22T19:14:54.409Z,15.30
2022-10-22T19:17:22.104Z,15.20
2022-10-22T19:19:51.095Z,15.20
2022-10-22T19:22:18.759Z,15.20
2022-10-22T19:24:47.065Z,15.30
2022-10-22T19:27:14.718Z,15.30
2022-10-22T19:29:42.371Z,15.30
2022-10-22T19:32:10.129Z,15.30
2022-10-22T19:34:39.861Z,15.30
2022-10-22T19:37:08.957Z,15.40
2022-10-22T19:39:36.602Z,15.40
2022-10-22T19:42:04.289Z,15.40
2022-10-22T19:44:31.937Z,15.30
2022-10-22T19:46:59.579Z,15.30
2022-10-22T19:49:27.291Z,15.30
2022-10-22T19:51:54.951Z,15.10
2022-10-22T19:54:23.961Z,15.10
2022-10-22T19:56:51.686Z,15.10
2022-10-22T19:59:20.655Z,15.10
2022-10-22T20:01:48.368Z,15.10
2022-10-22T20:04:17.238Z,15.20
2022-10-22T20:06:44.962Z,15.20
2022-10-22T20:09:13.633Z,15.10
2022-10-22T20:11:42.736Z,15.20
2022-10-22T20:14:10.402Z,15.20
2022-10-22T20:16:38.322Z,15.20
2022-10-22T20:19:07.633Z,15.20
2022-10-22T20:21:35.893Z,15.20
2022-10-22T20:24:03.632Z,15.10
2022-10-22T20:26:31.734Z,15.10
2022-10-22T20:29:00.851Z,15.10
2022-10-22T20:31:29.846Z,15.10
2022-10-22T20:33:58.694Z,15.10
2022-10-22T20:36:26.918Z,15.20
2022-10-22T20:38:59.004Z,15.10
2022-10-22T20:41:26.730Z,14.90
2022-10-22T20:43:54.367Z,14.90
2022-10-22T20:46:24.259Z,14.80
2022-10-22T20:48:52.588Z,14.80
2022-10-22T20:51:20.652Z,14.70
2022-10-22T20:53:48.308Z,14.60
2022-10-22T20:56:17.109Z,14.60
2022-10-22T20:58:48.269Z,14.60
2022-10-22T21:01:21.423Z,14.70
2022-10-22T21:03:50.861Z,14.60
2022-10-22T21:06:20.898Z,14.50
2022-10-22T21:08:48.742Z,14.50
2022-10-22T21:11:16.638Z,14.30
2022-10-22T21:13:44.346Z,14.20
2022-10-22T21:16:12.751Z,14.10
2022-10-22T21:18:40.709Z,13.90
2022-10-22T21:21:10.576Z,13.90
2022-10-22T21:23:38.251Z,13.90
2022-10-22T21:26:06.115Z,13.90
2022-10-22T21:28:35.155Z,13.90
2022-10-22T21:31:03.153Z,13.90
2022-10-22T21:33:30.819Z,13.90
2022-10-22T21:35:58.557Z,13.90
2022-10-22T21:38:27.601Z,13.90
2022-10-22T21:40:55.412Z,13.80
2022-10-22T21:43:23.068Z,13.70
2022-10-22T21:45:50.772Z,13.70
2022-10-22T21:48:20.815Z,13.60
2022-10-22T21:50:49.870Z,13.50
2022-10-22T21:53:17.518Z,13.60
2022-10-22T21:55:46.561Z,13.50
2022-10-22T21:58:14.214Z,13.50
2022-10-22T22:00:41.916Z,13.40
2022-10-22T22:03:09.561Z,13.30
2022-10-22T22:05:37.261Z,13.40
2022-10-22T22:08:04.920Z,13.30
2022-10-22T22:10:32.686Z,13.30
2022-10-22T22:13:01.738Z,13.30
2022-10-22T22:15:31.533Z,13.20
2022-10-22T22:17:59.178Z,13.10
2022-10-22T22:20:26.935Z,13.20
2022-10-22T22:22:54.732Z,13.20
2022-10-22T22:25:22.409Z,13.10
2022-10-22T22:27:50.100Z,13.00
2022-10-22T22:30:19.108Z,13.00
2022-10-22T22:32:46.808Z,13.00
2022-10-22T22:35:14.488Z,12.90
2022-10-22T22:37:42.536Z,12.90
2022-10-22T22:40:10.900Z,12.90
2022-10-22T22:42:38.637Z,12.80
2022-10-22T22:45:06.629Z,12.70
2022-10-22T22:47:35.743Z,12.70
2022-10-22T22:50:03.478Z,12.60
2022-10-22T22:52:31.154Z,12.60
2022-10-22T22:54:58.853Z,12.60
2022-10-22T22:57:26.763Z,12.60
2022-10-22T22:59:54.675Z,12.60
2022-10-22T23:02:22.338Z,12.50
2022-10-22T23:04:54.586Z,12.50
2022-10-22T23:07:22.315Z,12.30
2022-10-22T23:09:50.255Z,12.30
2022-10-22T23:12:18.005Z,12.30
2022-10-22T23:14:45.884Z,12.30
2022-10-22T23:17:13.628Z,12.30
2022-10-22T23:19:41.308Z,12.30
2022-10-22T23:22:10.421Z,12.40
2022-10-22T23:24:38.455Z,12.20
2022-10-22T23:27:06.097Z,12.10
2022-10-22T23:29:35.736Z,12.10
2022-10-22T23:32:04.599Z,12.10
2022-10-22T23:34:32.465Z,12.20
2022-10-22T23:37:00.543Z,12.40
2022-10-22T23:39:30.369Z,12.10
2022-10-22T23:41:58.392Z,12.10
2022-10-22T23:44:26.063Z,12.10
2022-10-22T23:46:53.994Z,12.10
2022-10-22T23:49:21.704Z,12.00
2022-10-22T23:51:49.351Z,11.90
2022-10-22T23:54:17.848Z,11.90
2022-10-22T23:56:46.871Z,11.80
